Time;durP1;ratioP1;P1;durP2;ratioP2;P2;SDS_P1;SDS_P2;PMS_P1;PMS_P2;Temp;Humidity;BMP_temperature;BMP_pressure;BME280_temperature;BME280_humidity;BME280_pressure;Samples;Min_cycle;Max_cycle;Signal;HPM_P1;HPM_P2
2022/02/17 00:00:19;;;;;;;24.48;2.72;;;11.00;99.90;;;;;;4972189;28;20039;-75
2022/02/17 00:02:46;;;;;;;24.23;2.67;;;11.00;99.90;;;;;;4971730;28;20026;-74
2022/02/17 00:05:12;;;;;;;19.85;1.95;;;11.00;99.90;;;;;;4976551;28;20498;-75
2022/02/17 00:07:39;;;;;;;23.13;3.15;;;11.00;99.90;;;;;;4989843;28;20054;-75
2022/02/17 00:10:07;;;;;;;22.85;2.40;;;10.90;99.90;;;;;;4974078;28;20056;-74
2022/02/17 00:12:34;;;;;;;23.95;3.10;;;10.90;99.90;;;;;;4984804;28;20370;-74
2022/02/17 00:15:01;;;;;;;18.45;2.05;;;10.90;99.90;;;;;;4989920;28;20034;-74
2022/02/17 00:17:27;;;;;;;20.02;2.55;;;10.90;99.90;;;;;;4991727;28;20030;-74
2022/02/17 00:19:54;;;;;;;17.48;2.17;;;10.90;99.90;;;;;;4990374;28;20041;-74
2022/02/17 00:22:20;;;;;;;21.77;2.70;;;11.00;99.90;;;;;;4957811;28;20034;-74
2022/02/17 00:24:47;;;;;;;17.55;2.30;;;11.00;99.90;;;;;;4989457;28;20445;-74
2022/02/17 00:27:13;;;;;;;23.40;2.67;;;11.00;99.90;;;;;;4991607;28;20034;-75
2022/02/17 00:29:39;;;;;;;25.40;2.78;;;11.00;99.90;;;;;;4990620;28;20034;-74
2022/02/17 00:32:07;;;;;;;17.55;2.05;;;11.00;99.90;;;;;;4975293;28;20501;-74
2022/02/17 00:34:33;;;;;;;16.02;2.60;;;11.10;99.90;;;;;;4971049;28;20045;-74
2022/02/17 00:37:02;;;;;;;13.60;2.03;;;11.10;99.90;;;;;;4991350;28;20034;-74
2022/02/17 00:39:32;;;;;;;19.15;2.03;;;11.10;99.90;;;;;;4989859;28;20030;-74
2022/02/17 00:41:59;;;;;;;25.23;2.83;;;11.00;99.90;;;;;;4992375;28;20505;-74
2022/02/17 00:44:25;;;;;;;17.88;2.63;;;11.00;99.90;;;;;;4993300;28;20037;-74
2022/02/17 00:46:55;;;;;;;16.05;1.95;;;10.90;99.90;;;;;;4972324;28;20046;-74
2022/02/17 00:49:26;;;;;;;17.13;2.20;;;10.90;99.90;;;;;;4977246;28;20486;-74
2022/02/17 00:51:53;;;;;;;20.27;2.63;;;10.90;99.90;;;;;;4994704;28;20057;-74
2022/02/17 00:54:22;;;;;;;21.20;2.15;;;10.90;99.90;;;;;;4992670;28;20397;-74
2022/02/17 00:56:48;;;;;;;16.00;2.50;;;10.90;99.90;;;;;;4958713;28;20046;-74
2022/02/17 00:59:16;;;;;;;19.58;2.72;;;10.90;99.90;;;;;;4992229;28;20398;-73
2022/02/17 01:01:46;;;;;;;13.68;2.03;;;10.80;99.90;;;;;;4994515;28;20042;-74
2022/02/17 01:04:14;;;;;;;13.55;1.90;;;10.80;99.90;;;;;;4976062;28;20046;-74
2022/02/17 01:06:42;;;;;;;16.35;2.35;;;10.90;99.90;;;;;;4952501;28;20058;-74
2022/02/17 01:09:10;;;;;;;17.65;2.60;;;10.90;99.90;;;;;;4994464;28;20078;-74
2022/02/17 01:11:37;;;;;;;17.25;2.20;;;10.80;99.90;;;;;;4994472;28;20095;-74
2022/02/17 01:14:05;;;;;;;12.93;1.35;;;10.70;99.90;;;;;;4993669;28;20050;-74
2022/02/17 01:16:31;;;;;;;11.40;1.55;;;10.50;99.90;;;;;;4976077;28;20462;-74
2022/02/17 01:18:58;;;;;;;15.43;2.40;;;10.20;99.90;;;;;;4994635;28;20044;-74
2022/02/17 01:21:25;;;;;;;17.17;2.15;;;10.10;99.90;;;;;;4980518;28;20381;-74
2022/02/17 01:23:52;;;;;;;21.45;2.53;;;10.00;99.90;;;;;;4980006;28;20026;-74
2022/02/17 01:26:19;;;;;;;23.55;2.03;;;10.00;99.90;;;;;;4961671;28;20485;-74
2022/02/17 01:28:54;;;;;;;15.02;2.40;;;10.00;99.90;;;;;;4975220;28;20039;-74
2022/02/17 01:31:26;;;;;;;23.20;2.13;;;10.00;99.90;;;;;;4969734;28;20042;-74
2022/02/17 01:34:09;;;;;;;16.92;1.70;;;9.90;99.90;;;;;;4978012;28;20046;-74
2022/02/17 01:36:39;;;;;;;10.82;1.30;;;9.80;99.90;;;;;;4978433;28;20039;-73
2022/02/17 01:39:06;;;;;;;13.88;1.40;;;9.60;99.90;;;;;;4974537;28;20029;-74
2022/02/17 01:41:34;;;;;;;18.90;1.45;;;9.60;99.90;;;;;;4964229;28;20045;-74
2022/02/17 01:44:13;;;;;;;11.38;1.45;;;9.50;99.90;;;;;;4979592;28;20042;-74
2022/02/17 01:46:42;;;;;;;14.30;1.70;;;9.40;99.90;;;;;;4960633;28;20054;-74
2022/02/17 01:49:10;;;;;;;12.10;1.35;;;9.40;99.90;;;;;;4993802;28;20042;-74
2022/02/17 01:51:38;;;;;;;14.52;1.60;;;9.30;99.90;;;;;;4995726;28;20506;-74
2022/02/17 01:54:06;;;;;;;23.13;2.60;;;9.40;99.90;;;;;;4963819;28;20038;-74
2022/02/17 01:56:34;;;;;;;22.00;1.70;;;9.40;99.90;;;;;;4993715;28;20381;-74
2022/02/17 01:59:08;;;;;;;18.63;2.03;;;9.40;99.90;;;;;;4976306;28;20037;-74
2022/02/17 02:01:38;;;;;;;19.98;2.67;;;9.40;99.90;;;;;;4979130;28;20022;-74
2022/02/17 02:04:05;;;;;;;20.23;2.83;;;9.50;99.90;;;;;;4978694;28;20068;-74
2022/02/17 02:06:34;;;;;;;26.73;2.53;;;9.50;99.90;;;;;;4981413;28;20274;-74
2022/02/17 02:09:06;;;;;;;18.27;2.10;;;9.50;99.90;;;;;;4995437;28;20041;-74
2022/02/17 02:11:57;;;;;;;25.88;2.83;;;9.50;99.90;;;;;;4970270;28;20053;-74
2022/02/17 02:14:23;;;;;;;26.30;4.45;;;9.50;99.90;;;;;;4980478;28;20486;-74
2022/02/17 02:16:52;;;;;;;27.90;3.35;;;9.60;99.90;;;;;;4977994;28;20508;-74
2022/02/17 02:19:22;;;;;;;26.13;3.40;;;9.60;99.90;;;;;;4979514;28;20053;-74
2022/02/17 02:21:53;;;;;;;28.02;3.60;;;9.70;99.90;;;;;;4977642;28;20031;-74
2022/02/17 02:24:20;;;;;;;30.95;4.00;;;9.70;99.90;;;;;;4980054;28;20069;-74
2022/02/17 02:26:47;;;;;;;30.73;4.00;;;9.70;99.90;;;;;;4988235;28;20034;-74
2022/02/17 02:29:19;;;;;;;27.08;3.90;;;9.80;99.90;;;;;;4974919;28;20038;-74
2022/02/17 02:31:47;;;;;;;34.83;4.10;;;9.80;99.90;;;;;;4976687;28;20038;-74
2022/02/17 02:34:13;;;;;;;46.40;4.93;;;9.80;99.90;;;;;;4959386;28;20049;-74
2022/02/17 02:36:40;;;;;;;32.65;5.10;;;9.90;99.90;;;;;;4960030;28;20034;-75
2022/02/17 02:39:06;;;;;;;32.45;4.25;;;9.90;99.90;;;;;;4989508;28;20371;-74
2022/02/17 02:41:47;;;;;;;30.92;4.40;;;9.90;99.90;;;;;;4987633;28;20038;-74
2022/02/17 02:44:13;;;;;;;28.27;4.47;;;9.90;99.90;;;;;;4973604;28;20376;-74
2022/02/17 02:46:46;;;;;;;29.45;3.45;;;9.90;99.90;;;;;;4970091;28;20359;-74
2022/02/17 02:49:13;;;;;;;32.65;3.92;;;9.80;99.90;;;;;;4989044;28;20038;-74
2022/02/17 02:51:39;;;;;;;22.08;3.15;;;9.80;99.90;;;;;;4990407;28;20035;-74
2022/02/17 02:54:05;;;;;;;21.88;3.42;;;9.70;99.90;;;;;;4989753;28;20049;-74
2022/02/17 02:56:37;;;;;;;21.27;2.60;;;9.60;99.90;;;;;;4989263;28;20085;-74
2022/02/17 02:59:06;;;;;;;18.80;2.65;;;9.60;99.90;;;;;;4980601;28;20042;-79
2022/02/17 03:01:33;;;;;;;19.50;3.05;;;9.60;99.90;;;;;;4944185;28;20034;-80
2022/02/17 03:04:00;;;;;;;22.90;3.13;;;9.50;99.90;;;;;;4959613;28;20046;-80
2022/02/17 03:06:29;;;;;;;25.55;2.88;;;9.50;99.90;;;;;;4992739;28;20050;-81
2022/02/17 03:08:57;;;;;;;23.88;2.08;;;9.40;99.90;;;;;;4959725;28;20042;-81
2022/02/17 03:11:28;;;;;;;19.58;2.83;;;9.40;99.90;;;;;;4979648;28;20049;-80
2022/02/17 03:13:55;;;;;;;26.98;3.00;;;9.50;99.90;;;;;;4967823;28;20050;-80
2022/02/17 03:16:23;;;;;;;23.33;3.55;;;9.40;99.90;;;;;;4963511;28;20053;-80
2022/02/17 03:18:50;;;;;;;21.20;2.47;;;9.40;99.90;;;;;;4958616;28;20041;-81
2022/02/17 03:21:17;;;;;;;25.88;3.80;;;9.50;99.90;;;;;;4928038;28;20049;-82
2022/02/17 03:23:43;;;;;;;21.58;2.78;;;9.40;99.90;;;;;;4969628;28;20030;-81
2022/02/17 03:26:16;;;;;;;22.40;3.42;;;9.40;99.90;;;;;;4954201;28;20049;-81
2022/02/17 03:29:03;;;;;;;16.42;2.25;;;9.40;99.90;;;;;;4963078;28;20061;-82
2022/02/17 03:31:31;;;;;;;19.95;2.75;;;9.40;99.90;;;;;;4956380;28;20371;-83
2022/02/17 03:34:04;;;;;;;21.83;4.03;;;9.30;99.90;;;;;;4946330;28;20038;-81
2022/02/17 03:36:33;;;;;;;24.67;2.63;;;9.30;99.90;;;;;;4939459;28;20494;-81
2022/02/17 03:39:01;;;;;;;21.63;2.50;;;9.40;99.90;;;;;;4942610;28;20339;-80
2022/02/17 03:41:47;;;;;;;20.55;2.50;;;9.30;99.90;;;;;;4973550;28;20034;-81
2022/02/17 03:44:14;;;;;;;20.23;3.45;;;9.40;99.90;;;;;;4955653;28;20046;-81
2022/02/17 03:46:44;;;;;;;20.25;2.88;;;9.30;99.90;;;;;;4972611;28;20049;-80
2022/02/17 03:49:13;;;;;;;20.45;2.67;;;9.30;99.90;;;;;;4965364;28;20038;-81
2022/02/17 03:51:39;;;;;;;21.58;2.90;;;9.20;99.90;;;;;;4926517;28;20054;-81
2022/02/17 03:54:06;;;;;;;20.27;3.38;;;9.10;99.90;;;;;;4957911;28;20394;-80
2022/02/17 03:56:34;;;;;;;23.25;2.60;;;9.10;99.90;;;;;;4978593;28;20042;-81
2022/02/17 03:59:21;;;;;;;19.52;2.90;;;9.10;99.90;;;;;;4966498;28;20069;-81
2022/02/17 04:01:47;;;;;;;16.80;2.65;;;9.10;99.90;;;;;;4943507;28;20034;-80
2022/02/17 04:04:19;;;;;;;18.60;2.90;;;9.10;99.90;;;;;;4965730;28;20050;-81
2022/02/17 04:06:45;;;;;;;16.73;2.35;;;9.10;99.90;;;;;;4940679;28;20046;-80
2022/02/17 04:09:12;;;;;;;18.17;2.13;;;9.10;99.90;;;;;;4974033;28;20039;-84
2022/02/17 04:11:40;;;;;;;21.58;2.35;;;9.10;99.90;;;;;;4960494;28;20395;-82
2022/02/17 04:14:07;;;;;;;18.13;2.53;;;9.10;99.90;;;;;;4956900;28;20046;-80
2022/02/17 04:16:45;;;;;;;16.73;2.25;;;9.10;99.90;;;;;;4957635;28;20049;-81
2022/02/17 04:19:20;;;;;;;25.73;2.40;;;9.10;99.90;;;;;;4965856;28;20372;-81
2022/02/17 04:22:04;;;;;;;20.05;2.75;;;9.10;99.90;;;;;;4967986;28;20053;-82
2022/02/17 04:24:39;;;;;;;22.30;2.75;;;9.10;99.90;;;;;;4963216;28;20034;-81
2022/02/17 04:27:06;;;;;;;23.70;3.25;;;9.10;99.90;;;;;;4944119;28;20127;-81
2022/02/17 04:29:35;;;;;;;22.73;2.70;;;9.10;99.90;;;;;;4961461;28;20030;-81
2022/02/17 04:32:03;;;;;;;22.05;2.80;;;9.10;99.90;;;;;;4958453;28;20035;-81
2022/02/17 04:34:30;;;;;;;25.67;3.03;;;9.10;99.90;;;;;;4964596;28;20053;-81
2022/02/17 04:37:23;;;;;;;17.98;2.33;;;9.10;99.90;;;;;;4973878;28;20042;-81
2022/02/17 04:39:50;;;;;;;19.00;2.63;;;9.20;99.90;;;;;;4948607;28;20041;-81
2022/02/17 04:42:19;;;;;;;23.83;3.40;;;9.20;99.90;;;;;;4953866;28;20032;-81
2022/02/17 04:44:50;;;;;;;23.58;3.72;;;9.20;99.90;;;;;;4994382;28;20057;-81
2022/02/17 04:47:18;;;;;;;21.95;2.80;;;9.30;99.90;;;;;;4975899;28;20386;-81
2022/02/17 04:49:45;;;;;;;18.80;3.10;;;9.30;99.90;;;;;;4945611;28;20039;-81
2022/02/17 04:52:12;;;;;;;17.73;2.40;;;9.40;99.90;;;;;;4946147;28;20035;-85
2022/02/17 04:54:39;;;;;;;29.48;4.03;;;9.40;99.90;;;;;;4974935;28;20042;-82
2022/02/17 04:57:07;;;;;;;21.27;3.58;;;9.50;99.90;;;;;;4956687;28;20045;-81
2022/02/17 04:59:37;;;;;;;19.67;2.73;;;9.50;99.90;;;;;;4977259;28;20053;-81
2022/02/17 05:02:04;;;;;;;22.48;3.63;;;9.50;99.90;;;;;;4966742;28;20030;-81
2022/02/17 05:04:54;;;;;;;25.02;3.38;;;9.50;99.90;;;;;;4963899;28;20050;-81
2022/02/17 05:07:23;;;;;;;25.02;4.05;;;9.50;99.90;;;;;;4974756;28;20402;-80
2022/02/17 05:09:50;;;;;;;22.23;3.45;;;9.50;99.90;;;;;;4994077;28;20065;-81
2022/02/17 05:12:20;;;;;;;29.73;3.70;;;9.50;99.90;;;;;;4962452;28;20038;-81
2022/02/17 05:14:47;;;;;;;20.95;2.88;;;9.50;99.90;;;;;;4976748;28;20057;-80
2022/02/17 05:17:18;;;;;;;21.85;3.10;;;9.50;99.90;;;;;;4956252;28;20058;-80
2022/02/17 05:19:45;;;;;;;21.98;3.13;;;9.50;99.90;;;;;;4938048;28;20045;-80
2022/02/17 05:22:38;;;;;;;22.67;3.30;;;9.50;99.90;;;;;;4939556;28;20054;-80
2022/02/17 05:25:18;;;;;;;14.70;1.95;;;9.40;99.90;;;;;;4965004;28;20034;-81
2022/02/17 05:28:03;;;;;;;20.13;2.28;;;9.00;99.90;;;;;;4963192;28;20034;-81
2022/02/17 05:30:41;;;;;;;19.33;1.98;;;8.70;99.90;;;;;;4947838;28;20038;-81
2022/02/17 05:33:26;;;;;;;23.17;2.28;;;8.40;99.90;;;;;;4980292;28;20046;-81
2022/02/17 05:36:09;;;;;;;22.02;2.42;;;8.20;99.90;;;;;;4956892;28;20042;-81
2022/02/17 05:39:00;;;;;;;19.55;2.17;;;8.20;99.90;;;;;;4978093;28;20038;-79
2022/02/17 05:41:45;;;;;;;19.08;2.13;;;8.10;99.90;;;;;;4972531;28;20486;-80
2022/02/17 05:44:11;;;;;;;18.73;2.45;;;7.90;99.90;;;;;;4957342;28;20031;-80
2022/02/17 05:46:38;;;;;;;23.40;2.75;;;7.80;99.90;;;;;;4930826;28;20537;-80
2022/02/17 05:49:04;;;;;;;26.20;3.65;;;7.70;99.90;;;;;;4976071;28;20040;-80
2022/02/17 05:51:31;;;;;;;24.33;2.63;;;7.70;99.90;;;;;;4945944;28;20061;-80
2022/02/17 05:53:57;;;;;;;20.00;3.13;;;7.60;99.90;;;;;;4964813;28;20037;-80
2022/02/17 05:56:24;;;;;;;25.27;2.83;;;7.60;99.90;;;;;;4978887;28;20494;-80
2022/02/17 05:58:50;;;;;;;24.30;2.80;;;7.50;99.90;;;;;;4971814;28;20041;-80
2022/02/17 06:01:16;;;;;;;19.55;3.00;;;7.50;99.90;;;;;;4961566;28;20038;-81
2022/02/17 06:03:43;;;;;;;18.02;2.67;;;7.50;99.90;;;;;;4978674;28;20038;-81
2022/02/17 06:06:09;;;;;;;26.65;3.65;;;7.50;99.90;;;;;;4942996;28;20054;-82
2022/02/17 06:08:36;;;;;;;20.00;2.38;;;7.40;99.90;;;;;;4975938;28;20043;-81
2022/02/17 06:11:02;;;;;;;20.00;2.17;;;7.40;99.90;;;;;;4942430;28;20517;-81
2022/02/17 06:13:29;;;;;;;18.90;1.75;;;7.40;99.90;;;;;;4978950;28;20046;-81
2022/02/17 06:15:55;;;;;;;27.90;3.13;;;7.30;99.90;;;;;;4943079;28;20502;-81
2022/02/17 06:18:22;;;;;;;23.25;1.92;;;7.30;99.90;;;;;;4954733;28;20042;-79
2022/02/17 06:20:49;;;;;;;20.00;2.17;;;7.30;99.90;;;;;;4947775;28;20335;-81
2022/02/17 06:23:15;;;;;;;15.80;1.45;;;7.30;99.90;;;;;;4943072;28;20039;-81
2022/02/17 06:25:42;;;;;;;20.85;2.58;;;7.40;99.90;;;;;;4946383;28;20053;-81
2022/02/17 06:28:08;;;;;;;16.73;2.95;;;7.40;99.90;;;;;;4958777;28;20046;-81
2022/02/17 06:30:35;;;;;;;17.40;2.78;;;7.40;99.90;;;;;;4954303;28;20034;-81
2022/02/17 06:33:02;;;;;;;24.45;3.42;;;7.40;99.90;;;;;;4949713;28;20034;-81
2022/02/17 06:35:33;;;;;;;17.13;2.72;;;7.40;99.90;;;;;;4990147;28;20041;-80
2022/02/17 06:38:00;;;;;;;17.05;2.00;;;7.40;99.90;;;;;;4991882;28;20021;-82
2022/02/17 06:40:29;;;;;;;20.33;2.22;;;7.40;99.90;;;;;;4979942;28;20165;-82
2022/02/17 06:42:57;;;;;;;22.92;3.33;;;7.40;99.90;;;;;;4957089;28;20034;-80
2022/02/17 06:45:27;;;;;;;20.50;3.10;;;7.50;99.90;;;;;;4990156;28;20030;-81
2022/02/17 06:48:13;;;;;;;18.67;3.47;;;7.50;99.90;;;;;;4975148;28;20057;-80
2022/02/17 06:50:42;;;;;;;23.17;2.70;;;7.50;99.90;;;;;;4959768;28;20033;-81
2022/02/17 06:53:09;;;;;;;19.83;2.83;;;7.50;99.90;;;;;;4968651;28;20039;-81
2022/02/17 06:55:35;;;;;;;13.60;1.58;;;7.50;99.90;;;;;;4979574;28;20042;-81
2022/02/17 06:58:02;;;;;;;19.80;2.00;;;7.50;99.90;;;;;;4974523;28;20033;-80
2022/02/17 07:00:29;;;;;;;13.95;1.48;;;7.60;99.90;;;;;;4989389;28;20037;-81
2022/02/17 07:02:56;;;;;;;14.23;2.03;;;7.70;99.90;;;;;;4964595;28;20050;-79
2022/02/17 07:05:24;;;;;;;18.05;1.77;;;7.70;99.90;;;;;;4989580;28;20057;-81
2022/02/17 07:08:17;;;;;;;18.58;2.08;;;7.70;99.90;;;;;;4973834;28;20050;-81
2022/02/17 07:10:54;;;;;;;15.38;1.95;;;7.70;99.90;;;;;;4990880;28;20042;-81
2022/02/17 07:13:23;;;;;;;13.38;2.15;;;7.70;99.90;;;;;;4972455;28;20042;-82
2022/02/17 07:15:51;;;;;;;10.73;1.30;;;7.70;99.90;;;;;;4971586;28;20042;-80
2022/02/17 07:18:20;;;;;;;10.75;1.42;;;7.80;99.90;;;;;;4952276;28;20163;-81
2022/02/17 07:20:54;;;;;;;9.93;1.00;;;7.80;99.90;;;;;;4972322;28;20030;-81
2022/02/17 07:23:30;;;;;;;11.07;0.90;;;7.80;99.90;;;;;;4988940;28;20415;-80
2022/02/17 07:25:58;;;;;;;8.32;0.88;;;7.80;99.90;;;;;;4949256;28;20082;-81
2022/02/17 07:28:26;;;;;;;8.18;1.30;;;7.80;99.90;;;;;;4941176;28;20066;-80
2022/02/17 07:30:53;;;;;;;10.02;1.00;;;7.80;99.90;;;;;;4974330;28;20045;-80
2022/02/17 07:33:19;;;;;;;8.32;1.05;;;7.70;99.90;;;;;;4975576;28;20033;-80
2022/02/17 07:35:46;;;;;;;8.38;0.60;;;7.70;99.90;;;;;;4975641;28;20040;-80
2022/02/17 07:38:13;;;;;;;8.77;0.95;;;7.60;99.90;;;;;;4970519;28;20081;-80
2022/02/17 07:40:41;;;;;;;8.30;0.90;;;7.60;99.90;;;;;;4946086;28;20035;-80
2022/02/17 07:43:09;;;;;;;9.13;1.25;;;7.60;99.90;;;;;;4943026;28;20485;-80
2022/02/17 07:45:37;;;;;;;9.98;0.85;;;7.60;99.90;;;;;;4951641;28;20501;-81
2022/02/17 07:48:04;;;;;;;6.00;1.05;;;7.60;99.90;;;;;;4941229;28;20398;-81
2022/02/17 07:50:33;;;;;;;8.95;1.00;;;7.60;99.90;;;;;;4963757;28;20034;-81
2022/02/17 07:53:00;;;;;;;5.95;0.80;;;7.60;99.90;;;;;;4954922;28;20038;-81
2022/02/17 07:55:27;;;;;;;13.48;1.42;;;7.70;99.90;;;;;;4961268;28;20129;-80
2022/02/17 07:58:15;;;;;;;14.20;1.88;;;7.80;99.90;;;;;;4978354;28;20046;-80
2022/02/17 08:00:42;;;;;;;17.10;1.90;;;7.90;99.90;;;;;;4998239;28;20050;-80
2022/02/17 08:03:10;;;;;;;11.52;1.67;;;8.00;99.90;;;;;;4953667;28;20071;-80
2022/02/17 08:05:38;;;;;;;18.80;1.75;;;8.00;99.90;;;;;;4948467;28;20493;-80
2022/02/17 08:08:06;;;;;;;16.15;1.30;;;8.10;99.90;;;;;;4962784;28;20458;-80
2022/02/17 08:10:33;;;;;;;16.92;1.55;;;8.20;99.90;;;;;;4978496;28;20046;-80
2022/02/17 08:12:59;;;;;;;13.63;1.55;;;8.20;99.90;;;;;;4982036;28;20025;-80
2022/02/17 08:15:26;;;;;;;16.13;1.55;;;8.30;99.90;;;;;;4942497;28;20494;-80
2022/02/17 08:17:52;;;;;;;13.68;1.45;;;8.40;99.90;;;;;;4981412;28;20482;-80
2022/02/17 08:20:18;;;;;;;10.18;0.90;;;8.50;99.90;;;;;;4965219;28;20066;-80
2022/02/17 08:22:53;;;;;;;13.98;1.35;;;8.60;99.90;;;;;;4995744;28;20538;-80
2022/02/17 08:25:20;;;;;;;9.75;1.08;;;8.50;99.90;;;;;;4961927;28;20339;-80
2022/02/17 08:27:48;;;;;;;11.20;1.38;;;8.50;99.90;;;;;;4962069;28;20039;-79
2022/02/17 08:30:15;;;;;;;12.93;1.42;;;8.40;99.90;;;;;;4964504;28;20046;-80
2022/02/17 08:32:42;;;;;;;13.00;1.35;;;8.40;99.90;;;;;;4978073;28;20037;-80
2022/02/17 08:35:10;;;;;;;11.40;1.40;;;8.40;99.90;;;;;;4978108;28;20030;-79
2022/02/17 08:37:39;;;;;;;7.78;1.15;;;8.40;99.90;;;;;;4974723;28;20042;-80
2022/02/17 08:40:08;;;;;;;14.55;1.83;;;8.50;99.90;;;;;;4982538;28;20110;-81
2022/02/17 08:42:35;;;;;;;12.88;2.08;;;8.50;99.90;;;;;;4977555;28;20034;-80
2022/02/17 08:45:02;;;;;;;11.52;1.45;;;8.60;99.90;;;;;;4960768;28;20499;-81
2022/02/17 08:47:29;;;;;;;13.35;1.90;;;8.70;99.90;;;;;;4944399;28;20046;-81
2022/02/17 08:49:55;;;;;;;10.90;1.20;;;8.90;99.90;;;;;;4956762;28;20049;-82
2022/02/17 08:52:21;;;;;;;12.57;1.33;;;9.00;99.90;;;;;;4947875;28;20038;-77
2022/02/17 08:54:49;;;;;;;14.02;1.98;;;9.10;99.90;;;;;;4937373;28;20042;-77
2022/02/17 08:57:17;;;;;;;12.15;1.40;;;9.00;99.90;;;;;;4993796;28;20042;-78
2022/02/17 08:59:43;;;;;;;13.18;1.10;;;9.00;99.90;;;;;;4964000;28;20038;-77
2022/02/17 09:02:10;;;;;;;11.27;1.40;;;9.00;99.90;;;;;;4959904;28;20041;-77
2022/02/17 09:04:38;;;;;;;11.07;1.08;;;9.00;99.90;;;;;;4977915;28;20045;-78
2022/02/17 09:07:05;;;;;;;14.32;1.48;;;9.00;99.90;;;;;;4934823;28;20063;-77
2022/02/17 09:09:31;;;;;;;14.10;1.52;;;9.00;99.90;;;;;;4948264;28;20066;-81
2022/02/17 09:11:58;;;;;;;12.65;1.48;;;9.10;99.90;;;;;;4991499;28;20046;-80
2022/02/17 09:14:24;;;;;;;8.50;1.30;;;9.10;99.90;;;;;;4975040;28;20518;-80
2022/02/17 09:16:53;;;;;;;11.98;1.10;;;9.10;99.90;;;;;;4958987;28;20057;-80
2022/02/17 09:19:20;;;;;;;12.77;1.25;;;9.10;99.90;;;;;;4945335;28;20031;-80
2022/02/17 09:21:49;;;;;;;9.50;1.15;;;9.10;99.90;;;;;;4962933;28;20516;-81
2022/02/17 09:24:17;;;;;;;10.43;1.17;;;9.10;99.90;;;;;;4960597;28;20041;-80
2022/02/17 09:26:45;;;;;;;9.98;1.08;;;9.10;99.90;;;;;;4975658;28;20030;-80
2022/02/17 09:29:12;;;;;;;7.18;0.70;;;9.10;99.90;;;;;;4965735;28;20042;-80
2022/02/17 09:31:39;;;;;;;10.23;1.48;;;9.10;99.90;;;;;;4955175;28;20444;-81
2022/02/17 09:34:07;;;;;;;8.90;1.02;;;9.10;99.90;;;;;;4963801;28;20042;-83
2022/02/17 09:36:33;;;;;;;9.30;1.38;;;9.20;99.90;;;;;;4974870;28;20050;-84
2022/02/17 09:39:00;;;;;;;7.80;0.90;;;9.30;99.90;;;;;;4991580;28;20061;-81
2022/02/17 09:41:27;;;;;;;8.23;0.98;;;9.40;99.90;;;;;;4942482;28;20367;-81
2022/02/17 09:44:04;;;;;;;9.85;1.60;;;9.50;99.90;;;;;;4992528;28;20030;-81
2022/02/17 09:46:33;;;;;;;12.20;1.40;;;9.50;99.90;;;;;;4977038;28;20034;-82
2022/02/17 09:49:03;;;;;;;9.10;0.90;;;9.50;99.90;;;;;;4976860;28;20042;-81
2022/02/17 09:51:31;;;;;;;8.57;0.90;;;9.50;99.90;;;;;;4976699;28;20046;-77
2022/02/17 09:53:58;;;;;;;6.57;0.63;;;9.50;99.90;;;;;;4962762;28;20376;-77
2022/02/17 09:56:25;;;;;;;8.27;0.80;;;9.50;99.90;;;;;;4961172;28;20467;-77
2022/02/17 09:58:53;;;;;;;7.68;0.85;;;9.50;99.90;;;;;;4976270;28;20046;-77
2022/02/17 10:01:26;;;;;;;9.75;1.13;;;9.50;99.90;;;;;;4993734;28;20050;-77
2022/02/17 10:04:23;;;;;;;7.60;0.60;;;9.50;99.90;;;;;;4960891;28;20034;-77
2022/02/17 10:06:58;;;;;;;12.00;1.00;;;9.60;99.90;;;;;;4951620;28;20594;-77
2022/02/17 10:09:40;;;;;;;6.40;0.75;;;9.70;99.90;;;;;;4959785;28;20501;-77
2022/02/17 10:12:09;;;;;;;7.67;1.20;;;9.90;99.90;;;;;;4958117;28;20035;-77
2022/02/17 10:14:39;;;;;;;6.40;0.98;;;9.90;99.90;;;;;;4958329;28;20054;-77
2022/02/17 10:17:12;;;;;;;6.43;0.55;;;10.00;99.90;;;;;;4955341;28;20364;-77
2022/02/17 10:19:40;;;;;;;;;;;10.10;99.90;;;;;;4962215;28;20023;-77
2022/02/17 10:22:12;;;;;;;6.38;0.75;;;10.20;99.90;;;;;;4977575;28;19917;-77
2022/02/17 10:24:43;;;;;;;6.55;0.82;;;10.40;99.90;;;;;;4974935;28;20034;-77
2022/02/17 10:27:22;;;;;;;5.57;0.68;;;10.50;99.90;;;;;;4947832;28;20030;-77
2022/02/17 10:30:13;;;;;;;9.10;0.90;;;10.50;99.90;;;;;;4962691;28;20129;-77
2022/02/17 10:33:07;;;;;;;5.95;0.95;;;10.50;99.90;;;;;;4962231;28;20041;-77
2022/02/17 10:35:33;;;;;;;8.70;0.95;;;10.50;99.90;;;;;;4994489;28;20045;-77
2022/02/17 10:38:01;;;;;;;6.65;1.45;;;10.50;99.90;;;;;;4973425;28;20038;-77
2022/02/17 10:40:33;;;;;;;5.38;0.82;;;10.50;99.90;;;;;;4958170;28;20058;-77
2022/02/17 10:43:01;;;;;;;6.38;0.80;;;10.50;99.90;;;;;;4976370;28;20126;-77
2022/02/17 10:45:29;;;;;;;9.27;0.65;;;10.60;99.90;;;;;;4960015;28;20054;-77
2022/02/17 10:48:21;;;;;;;8.80;0.77;;;10.60;99.90;;;;;;4992300;28;20030;-77
2022/02/17 10:51:04;;;;;;;7.97;0.68;;;10.70;99.90;;;;;;4976117;28;20266;-77
2022/02/17 10:53:31;;;;;;;;;;;10.80;99.90;;;;;;4993241;28;20038;-77
2022/02/17 10:56:07;;;;;;;5.32;0.45;;;10.80;99.90;;;;;;4961079;28;20296;-77
2022/02/17 10:58:37;;;;;;;5.70;1.25;;;10.90;99.90;;;;;;4979409;28;20026;-77
2022/02/17 11:01:07;;;;;;;6.53;0.93;;;11.00;99.90;;;;;;4972413;28;20058;-77
2022/02/17 11:03:37;;;;;;;7.00;0.70;;;11.30;99.90;;;;;;4973702;28;20045;-78
2022/02/17 11:06:14;;;;;;;5.60;0.95;;;11.60;99.90;;;;;;4976514;28;20050;-78
2022/02/17 11:08:47;;;;;;;5.95;0.70;;;11.80;99.90;;;;;;4946914;28;20046;-78
2022/02/17 11:11:15;;;;;;;6.03;0.80;;;12.00;99.90;;;;;;4989705;28;20501;-78
2022/02/17 11:13:53;;;;;;;5.05;0.82;;;12.10;99.90;;;;;;4980445;28;20040;-78
2022/02/17 11:16:25;;;;;;;6.40;0.73;;;12.50;99.90;;;;;;4973064;28;20047;-79
2022/02/17 11:19:00;;;;;;;4.47;0.80;;;12.70;99.90;;;;;;4954382;28;20054;-78
2022/02/17 11:21:28;;;;;;;7.68;0.70;;;13.10;99.90;;;;;;4988861;28;20045;-78
2022/02/17 11:24:05;;;;;;;6.30;0.60;;;13.20;98.90;;;;;;4968989;28;20060;-77
2022/02/17 11:26:42;;;;;;;7.68;0.98;;;13.00;98.00;;;;;;4938576;28;20048;-78
2022/02/17 11:29:25;;;;;;;6.90;0.70;;;12.70;97.50;;;;;;4973742;28;20054;-78
2022/02/17 11:32:02;;;;;;;5.32;0.68;;;12.40;97.00;;;;;;4940920;28;20473;-78
2022/02/17 11:34:44;;;;;;;13.43;1.70;;;12.30;96.50;;;;;;4970264;28;20029;-79
2022/02/17 11:37:30;;;;;;;5.83;1.40;;;12.10;96.80;;;;;;4975043;28;20034;-79
2022/02/17 11:40:04;;;;;;;6.88;1.02;;;12.00;96.70;;;;;;4989936;28;20089;-79
2022/02/17 11:42:42;;;;;;;6.53;0.55;;;11.90;96.80;;;;;;4986807;28;20362;-80
2022/02/17 11:45:13;;;;;;;10.63;1.00;;;11.80;96.80;;;;;;4967302;28;20026;-78
2022/02/17 11:48:09;;;;;;;9.00;0.83;;;11.70;97.10;;;;;;4990438;28;21414;-80
2022/02/17 11:50:43;;;;;;;6.78;0.60;;;11.60;97.70;;;;;;4974338;28;20048;-78
2022/02/17 11:53:32;;;;;;;9.60;0.82;;;11.60;97.50;;;;;;4958120;28;20030;-79
2022/02/17 11:56:15;;;;;;;7.15;0.70;;;11.60;97.40;;;;;;4977772;28;20026;-80
2022/02/17 11:58:43;;;;;;;7.07;1.08;;;11.50;96.80;;;;;;4987163;28;20041;-80
2022/02/17 12:01:25;;;;;;;7.20;1.42;;;11.40;96.50;;;;;;4989976;28;20030;-81
2022/02/17 12:04:17;;;;;;;7.47;0.88;;;11.40;97.40;;;;;;4956975;28;20359;-79
2022/02/17 12:06:54;;;;;;;7.93;0.77;;;11.40;97.20;;;;;;4973350;28;20055;-85
2022/02/17 12:09:33;;;;;;;6.22;0.68;;;11.50;97.50;;;;;;4944650;28;20038;-81
2022/02/17 12:12:09;;;;;;;7.10;1.30;;;11.90;96.30;;;;;;4959291;28;20467;-80
2022/02/17 12:14:39;;;;;;;8.20;0.70;;;12.30;96.80;;;;;;4955430;28;20142;-80
2022/02/17 12:17:08;;;;;;;7.53;0.75;;;12.60;96.40;;;;;;4940792;28;20043;-80
2022/02/17 12:19:35;;;;;;;5.03;0.70;;;12.50;95.90;;;;;;4932374;28;20035;-81
2022/02/17 12:22:13;;;;;;;7.15;0.75;;;12.40;95.90;;;;;;4936885;28;20406;-80
2022/02/17 12:24:43;;;;;;;8.68;0.80;;;12.20;96.20;;;;;;4961350;28;20031;-80
2022/02/17 12:27:21;;;;;;;9.20;1.40;;;12.10;96.00;;;;;;4931122;28;20046;-79
2022/02/17 12:29:48;;;;;;;6.13;0.70;;;11.90;95.80;;;;;;4975291;28;20035;-80
2022/02/17 12:32:20;;;;;;;8.15;0.85;;;11.70;95.00;;;;;;4961272;28;20039;-80
2022/02/17 12:34:49;;;;;;;6.45;0.50;;;11.60;95.60;;;;;;4948545;28;20066;-80
2022/02/17 12:37:24;;;;;;;8.35;0.80;;;11.50;96.20;;;;;;4976142;28;20038;-80
2022/02/17 12:39:59;;;;;;;8.32;0.77;;;11.50;96.10;;;;;;4977464;28;20034;-79
2022/02/17 12:42:44;;;;;;;9.65;1.10;;;11.50;95.70;;;;;;4955416;28;20047;-80
2022/02/17 12:45:30;;;;;;;6.50;0.80;;;11.70;95.90;;;;;;4972727;28;20050;-78
2022/02/17 12:48:01;;;;;;;5.45;0.55;;;11.90;96.00;;;;;;4973468;28;20038;-79
2022/02/17 12:50:40;;;;;;;6.43;1.05;;;12.30;96.00;;;;;;4980083;28;20050;-80
2022/02/17 12:53:16;;;;;;;4.43;0.73;;;12.80;95.60;;;;;;4966044;28;20031;-78
2022/02/17 12:55:52;;;;;;;6.95;0.60;;;13.40;94.90;;;;;;4964415;28;20475;-80
2022/02/17 12:59:00;;;;;;;7.38;0.70;;;13.40;93.40;;;;;;4981334;28;20054;-80
2022/02/17 13:01:28;;;;;;;8.63;1.00;;;12.90;91.90;;;;;;4950656;28;20050;-80
2022/02/17 13:04:02;;;;;;;8.70;0.70;;;12.40;92.80;;;;;;4983184;28;20042;-80
2022/02/17 13:06:37;;;;;;;5.78;0.85;;;12.00;92.60;;;;;;4966556;28;20057;-80